SAOC/RCU METAR and TAF weather

Enter ICAO airport designator
Station Type Date Time Source
SAOC METAR 2021/09/28 00:00 UTC NOAA

SAOC 280000Z 16013KT 9999 OVC020 12/08 Q1020


Station Type Date Time Source
SAOC Decoded METAR 2021/09/28 00:00 UTC NOAA

Rio Cuarto Aerodrome, Argentina (SAOC) 33-07S 064-14W 421M
Sep 27, 2021 - 08:00 PM EDT / 2021.09.28 0000 UTC
Wind: from the SSE (160 degrees) at 15 MPH (13 KT):0
Visibility: greater than 7 mile(s):0
Sky conditions: overcast
Temperature: 53 F (12 C)
Dew Point: 46 F (8 C)
Relative Humidity: 76%
Pressure (altimeter): 30.12 in. Hg (1020 hPa)
ob: SAOC 280000Z 16013KT 9999 OVC020 12/08 Q1020
cycle: 0

Station Type Date Time Source
SAOC TAF 2021/09/10 12:54 UTC NOAA

TAF SAOC 101100Z 1012/1112 05015KT CAVOK TX22/1018Z TN07/1110Z
BECMG 11109/11112 05020KT CVAVOK

Example: see airport list